Time;durP1;ratioP1;P1;durP2;ratioP2;P2;SDS_P1;SDS_P2;PMS_P1;PMS_P2;Temp;Humidity;BMP_temperature;BMP_pressure;BME280_temperature;BME280_humidity;BME280_pressure;Samples;Min_cycle;Max_cycle;Signal;HPM_P1;HPM_P2
2023/01/08 00:02:12;;;;;;;4.70;4.20;;;7.90;99.90;;;;;;5034926;28;20736;-62
2023/01/08 00:04:38;;;;;;;7.20;4.67;;;7.90;99.90;;;;;;5034824;28;20721;-63
2023/01/08 00:07:05;;;;;;;4.70;4.20;;;7.80;99.90;;;;;;5034634;28;20256;-63
2023/01/08 00:09:32;;;;;;;5.63;4.33;;;7.80;99.90;;;;;;5035120;28;20218;-64
2023/01/08 00:11:58;;;;;;;4.70;3.93;;;7.70;99.90;;;;;;5035119;28;20210;-63
2023/01/08 00:14:25;;;;;;;5.57;4.20;;;7.50;99.90;;;;;;5035079;28;20226;-64
2023/01/08 00:16:51;;;;;;;4.30;3.87;;;7.40;99.90;;;;;;5034590;28;20214;-64
2023/01/08 00:19:19;;;;;;;4.40;4.00;;;7.40;99.90;;;;;;5034882;28;20209;-64
2023/01/08 00:21:46;;;;;;;4.73;3.83;;;7.40;99.90;;;;;;5034515;28;20206;-63
2023/01/08 00:24:13;;;;;;;4.50;3.73;;;7.30;99.90;;;;;;5034494;28;20218;-62
2023/01/08 00:26:39;;;;;;;5.80;3.80;;;7.40;99.90;;;;;;5034220;28;20674;-63
2023/01/08 00:29:06;;;;;;;4.40;3.40;;;7.50;99.90;;;;;;5034371;28;20215;-64
2023/01/08 00:31:33;;;;;;;4.20;3.63;;;7.40;99.90;;;;;;5034778;28;20206;-62
2023/01/08 00:34:00;;;;;;;5.77;4.40;;;7.30;99.90;;;;;;5034566;28;20621;-62
2023/01/08 00:36:28;;;;;;;7.10;3.70;;;7.40;99.90;;;;;;5034158;28;20643;-63
2023/01/08 00:38:54;;;;;;;4.23;3.83;;;7.40;99.90;;;;;;5034339;28;20701;-64
2023/01/08 00:41:22;;;;;;;4.67;3.70;;;7.30;99.90;;;;;;5034361;28;20639;-63
2023/01/08 00:43:48;;;;;;;4.37;3.77;;;7.50;99.90;;;;;;5034328;28;20256;-64
2023/01/08 00:46:15;;;;;;;6.57;4.47;;;7.50;99.90;;;;;;5033841;28;20234;-64
2023/01/08 00:48:41;;;;;;;5.37;4.00;;;7.60;99.90;;;;;;5033986;28;20206;-62
2023/01/08 00:51:09;;;;;;;5.20;4.03;;;7.50;99.90;;;;;;5034257;28;20226;-63
2023/01/08 00:53:37;;;;;;;5.73;4.30;;;7.40;99.90;;;;;;5033987;28;20287;-63
2023/01/08 00:56:06;;;;;;;5.37;4.37;;;7.50;99.90;;;;;;5033594;28;20789;-64
2023/01/08 00:58:33;;;;;;;5.63;3.87;;;7.60;99.90;;;;;;5033816;28;20211;-64
2023/01/08 01:01:00;;;;;;;5.73;4.30;;;7.60;99.90;;;;;;5034002;28;20233;-63
2023/01/08 01:03:26;;;;;;;5.40;4.30;;;7.60;99.90;;;;;;5033772;28;20640;-63
2023/01/08 01:06:00;;;;;;;5.03;3.87;;;7.60;99.90;;;;;;5033595;28;20260;-63
2023/01/08 01:08:27;;;;;;;6.47;4.03;;;7.60;99.90;;;;;;5033810;28;20210;-64
2023/01/08 01:10:55;;;;;;;5.30;4.13;;;7.70;99.90;;;;;;5033557;28;20230;-63
2023/01/08 01:13:22;;;;;;;5.40;4.30;;;7.60;99.90;;;;;;5033920;28;20213;-63
2023/01/08 01:15:57;;;;;;;7.67;4.00;;;7.60;99.90;;;;;;5033250;28;20226;-63
2023/01/08 01:18:24;;;;;;;4.33;3.90;;;7.60;99.90;;;;;;5033804;28;20233;-63
2023/01/08 01:20:51;;;;;;;4.50;3.87;;;7.50;99.90;;;;;;5033717;28;20214;-62
2023/01/08 01:23:17;;;;;;;6.03;3.97;;;7.50;99.90;;;;;;5033626;28;20218;-65
2023/01/08 01:25:44;;;;;;;6.27;4.40;;;7.50;99.90;;;;;;5033560;28;20234;-62
2023/01/08 01:28:12;;;;;;;7.07;4.90;;;7.40;99.90;;;;;;5034356;28;20206;-63
2023/01/08 01:30:39;;;;;;;4.90;4.10;;;7.40;99.90;;;;;;5035883;28;20230;-63
2023/01/08 01:33:05;;;;;;;5.33;4.40;;;7.40;99.90;;;;;;5040132;28;20206;-63
2023/01/08 01:35:32;;;;;;;5.23;4.10;;;7.50;99.90;;;;;;5039592;28;20230;-62
2023/01/08 01:37:59;;;;;;;4.93;4.00;;;7.50;99.90;;;;;;5039209;28;20264;-63
2023/01/08 01:40:25;;;;;;;5.57;3.97;;;7.60;99.90;;;;;;5041094;28;20333;-64
2023/01/08 01:42:52;;;;;;;4.43;3.80;;;7.50;99.90;;;;;;5040751;28;20229;-64
2023/01/08 01:45:22;;;;;;;5.27;4.10;;;7.50;99.90;;;;;;5033541;28;20725;-63
2023/01/08 01:47:54;;;;;;;5.43;4.40;;;7.50;99.90;;;;;;5032886;28;20210;-61
2023/01/08 01:50:26;;;;;;;4.30;3.60;;;7.60;99.90;;;;;;5032888;28;20265;-63
2023/01/08 01:52:58;;;;;;;6.07;3.93;;;7.60;99.90;;;;;;5032938;28;20201;-64
2023/01/08 01:55:26;;;;;;;5.50;4.00;;;7.60;99.90;;;;;;5032882;28;20308;-62
2023/01/08 01:58:04;;;;;;;5.20;4.07;;;7.60;99.90;;;;;;5032618;28;20206;-62
2023/01/08 02:00:33;;;;;;;5.00;3.90;;;7.60;99.90;;;;;;5032072;28;20205;-63
2023/01/08 02:03:00;;;;;;;4.53;3.80;;;7.70;99.90;;;;;;5032646;28;20298;-61
2023/01/08 02:05:33;;;;;;;4.97;4.07;;;7.70;99.90;;;;;;5032464;28;20313;-63
2023/01/08 02:08:06;;;;;;;6.00;4.47;;;7.80;99.90;;;;;;5032637;28;20210;-63
2023/01/08 02:10:42;;;;;;;6.03;4.13;;;7.80;99.90;;;;;;5032745;28;20763;-61
2023/01/08 02:13:16;;;;;;;6.13;4.30;;;7.80;99.90;;;;;;5032559;28;20210;-62
2023/01/08 02:15:51;;;;;;;4.53;3.90;;;7.70;99.90;;;;;;5032183;28;20225;-62
2023/01/08 02:18:20;;;;;;;4.93;3.63;;;7.70;99.90;;;;;;5033098;28;20206;-62
2023/01/08 02:20:54;;;;;;;4.87;3.60;;;7.70;99.90;;;;;;5033215;28;20675;-62
2023/01/08 02:23:30;;;;;;;4.23;3.67;;;7.60;99.90;;;;;;5033400;28;20210;-62
2023/01/08 02:26:05;;;;;;;6.10;4.10;;;7.60;99.90;;;;;;5032096;28;20249;-62
2023/01/08 02:28:36;;;;;;;4.00;3.33;;;7.70;99.90;;;;;;5032625;28;20206;-62
2023/01/08 02:31:03;;;;;;;4.17;3.70;;;7.70;99.90;;;;;;5032507;28;20237;-62
2023/01/08 02:33:32;;;;;;;3.73;3.37;;;7.70;99.90;;;;;;5032394;28;20210;-63
2023/01/08 02:36:32;;;;;;;4.27;3.33;;;7.80;99.90;;;;;;5031768;28;20284;-62
2023/01/08 02:39:20;;;;;;;5.63;3.53;;;7.80;99.90;;;;;;5018881;28;20213;-62
2023/01/08 02:42:08;;;;;;;4.20;3.00;;;7.90;99.90;;;;;;5032394;28;20285;-63
2023/01/08 02:44:48;;;;;;;4.23;3.40;;;7.90;99.90;;;;;;5031877;28;20599;-61
2023/01/08 02:47:24;;;;;;;4.00;3.20;;;8.00;99.90;;;;;;5032290;28;20263;-62
2023/01/08 02:49:59;;;;;;;4.40;3.43;;;8.00;99.90;;;;;;5032235;28;20263;-62
2023/01/08 02:52:29;;;;;;;4.17;3.00;;;8.10;99.90;;;;;;5032109;28;20624;-61
2023/01/08 02:54:59;;;;;;;4.43;3.40;;;8.20;99.90;;;;;;5032036;28;20252;-62
2023/01/08 02:57:28;;;;;;;4.67;3.00;;;8.30;99.90;;;;;;5031737;28;20749;-61
2023/01/08 02:59:56;;;;;;;6.33;3.53;;;8.30;99.90;;;;;;5032154;28;20210;-63
2023/01/08 03:02:23;;;;;;;5.50;3.13;;;8.30;99.90;;;;;;5032133;28;20209;-63
2023/01/08 03:04:55;;;;;;;4.40;3.23;;;8.40;99.90;;;;;;5031818;28;20230;-62
2023/01/08 03:07:22;;;;;;;3.17;2.63;;;8.50;99.90;;;;;;5031642;28;20208;-62
2023/01/08 03:09:49;;;;;;;3.90;3.43;;;8.60;99.90;;;;;;5031651;28;20210;-63
2023/01/08 03:12:19;;;;;;;4.10;2.90;;;8.60;99.90;;;;;;5035668;28;20248;-63
2023/01/08 03:14:54;;;;;;;3.60;3.00;;;8.60;99.90;;;;;;5035990;28;20280;-61
2023/01/08 03:17:26;;;;;;;3.83;3.30;;;8.60;99.90;;;;;;5035618;28;20247;-61
2023/01/08 03:19:55;;;;;;;4.73;3.33;;;8.50;99.90;;;;;;5035555;28;20695;-63
2023/01/08 03:22:23;;;;;;;3.87;3.20;;;8.50;99.90;;;;;;5035525;28;20264;-61
2023/01/08 03:24:52;;;;;;;4.60;3.00;;;8.60;99.90;;;;;;5035747;28;20222;-61
2023/01/08 03:27:24;;;;;;;3.57;2.80;;;8.70;99.90;;;;;;5035390;28;20272;-62
2023/01/08 03:29:54;;;;;;;4.13;3.30;;;8.70;99.90;;;;;;5035464;28;20337;-62
2023/01/08 03:32:21;;;;;;;4.07;3.30;;;8.80;99.90;;;;;;5036128;28;20586;-62
2023/01/08 03:34:50;;;;;;;5.57;3.03;;;8.80;99.90;;;;;;5035251;28;20234;-62
2023/01/08 03:37:21;;;;;;;4.50;2.90;;;8.80;99.90;;;;;;5035401;28;20210;-61
2023/01/08 03:39:55;;;;;;;4.37;3.23;;;8.70;99.90;;;;;;5036124;28;20276;-63
2023/01/08 03:42:23;;;;;;;3.73;3.17;;;8.70;99.90;;;;;;5035961;28;20210;-61
2023/01/08 03:44:49;;;;;;;3.93;3.13;;;8.70;99.90;;;;;;5035462;28;20234;-62
2023/01/08 03:47:20;;;;;;;4.27;3.23;;;8.60;99.90;;;;;;5035381;28;20214;-63
2023/01/08 03:49:50;;;;;;;4.33;3.20;;;8.70;99.90;;;;;;5035629;28;20233;-62
2023/01/08 03:52:24;;;;;;;3.50;3.13;;;8.80;99.90;;;;;;5035749;28;20230;-62
2023/01/08 03:54:50;;;;;;;3.87;3.17;;;8.80;99.90;;;;;;5035405;28;20229;-62
2023/01/08 03:57:17;;;;;;;4.87;3.20;;;8.80;99.90;;;;;;5034737;28;20206;-62
2023/01/08 03:59:44;;;;;;;3.77;2.87;;;8.80;99.90;;;;;;5034889;28;20210;-62
2023/01/08 04:02:11;;;;;;;5.27;3.13;;;8.80;99.90;;;;;;5035332;28;20257;-62
2023/01/08 04:04:39;;;;;;;5.53;3.00;;;8.90;99.90;;;;;;5034871;28;20226;-62
2023/01/08 04:07:06;;;;;;;4.63;3.00;;;8.90;99.90;;;;;;5034704;28;20213;-62
2023/01/08 04:09:32;;;;;;;3.97;3.33;;;8.90;99.90;;;;;;5034777;28;20677;-62
2023/01/08 04:11:59;;;;;;;3.40;2.70;;;8.90;99.90;;;;;;5034637;28;20713;-62
2023/01/08 04:14:25;;;;;;;4.67;3.20;;;8.90;99.90;;;;;;5034419;28;20257;-61
2023/01/08 04:16:52;;;;;;;3.57;2.70;;;9.00;99.90;;;;;;5034589;28;20873;-61
2023/01/08 04:19:19;;;;;;;3.70;2.63;;;9.00;99.90;;;;;;5034616;28;20210;-63
2023/01/08 04:21:50;;;;;;;3.63;2.90;;;9.00;99.90;;;;;;5034224;28;20198;-63
2023/01/08 04:24:17;;;;;;;3.77;3.07;;;8.90;99.90;;;;;;5034181;28;20217;-63
2023/01/08 04:26:43;;;;;;;3.80;3.03;;;8.90;99.90;;;;;;5034256;28;20637;-62
2023/01/08 04:29:11;;;;;;;4.00;3.20;;;9.00;99.90;;;;;;5034572;28;20210;-63
2023/01/08 04:31:37;;;;;;;3.57;2.80;;;9.00;99.90;;;;;;5034201;28;20630;-63
2023/01/08 04:34:04;;;;;;;4.73;3.60;;;9.00;99.90;;;;;;5034320;28;20202;-62
2023/01/08 04:36:31;;;;;;;4.00;3.10;;;9.10;99.90;;;;;;5034217;28;20206;-63
2023/01/08 04:38:59;;;;;;;4.37;3.50;;;9.10;99.90;;;;;;5034262;28;20210;-63
2023/01/08 04:41:26;;;;;;;3.67;3.20;;;9.20;99.90;;;;;;5034021;28;20570;-63
2023/01/08 04:43:53;;;;;;;4.97;3.10;;;9.20;99.90;;;;;;5034083;28;20225;-63
2023/01/08 04:46:19;;;;;;;3.47;3.17;;;9.30;99.90;;;;;;5033626;28;20730;-63
2023/01/08 04:48:46;;;;;;;3.97;3.20;;;9.40;99.90;;;;;;5033944;28;20701;-63
2023/01/08 04:51:13;;;;;;;4.30;3.10;;;9.30;99.90;;;;;;5033993;28;20649;-63
2023/01/08 04:53:40;;;;;;;5.67;2.77;;;9.30;99.90;;;;;;5033777;28;20222;-63
2023/01/08 04:56:10;;;;;;;3.10;2.57;;;9.50;99.90;;;;;;5033677;28;20229;-62
2023/01/08 04:58:38;;;;;;;3.83;2.53;;;9.50;99.90;;;;;;5033947;28;20271;-63
2023/01/08 05:01:11;;;;;;;2.97;2.57;;;9.70;99.90;;;;;;5033618;28;20202;-62
2023/01/08 05:03:37;;;;;;;4.93;2.93;;;9.80;99.90;;;;;;5033828;28;20887;-62
2023/01/08 05:06:05;;;;;;;2.90;2.50;;;9.80;99.90;;;;;;5033517;28;20234;-63
2023/01/08 05:08:32;;;;;;;3.23;2.50;;;9.80;99.90;;;;;;5033548;28;20237;-63
2023/01/08 05:10:58;;;;;;;2.80;2.50;;;9.80;99.90;;;;;;5033707;28;20280;-63
2023/01/08 05:13:27;;;;;;;3.00;2.43;;;9.90;99.90;;;;;;5033690;28;20260;-62
2023/01/08 05:15:55;;;;;;;3.00;2.40;;;9.90;99.90;;;;;;5033496;28;20313;-63
2023/01/08 05:18:21;;;;;;;6.23;2.40;;;10.00;99.90;;;;;;5033354;28;20206;-63
2023/01/08 05:20:48;;;;;;;3.53;2.50;;;10.00;99.90;;;;;;5033451;28;20617;-63
2023/01/08 05:23:15;;;;;;;5.60;2.23;;;10.10;99.90;;;;;;5033298;28;20626;-63
2023/01/08 05:25:42;;;;;;;2.77;2.53;;;10.20;99.90;;;;;;5033259;28;20230;-62
2023/01/08 05:28:08;;;;;;;3.17;2.27;;;10.30;99.90;;;;;;5032994;28;20755;-63
2023/01/08 05:30:37;;;;;;;4.30;2.70;;;10.30;99.90;;;;;;5033522;28;20203;-62
2023/01/08 05:33:04;;;;;;;3.93;2.50;;;10.40;99.90;;;;;;5033122;28;20659;-63
2023/01/08 05:35:31;;;;;;;3.07;2.40;;;10.40;99.90;;;;;;5032013;28;20706;-63
2023/01/08 05:37:59;;;;;;;4.33;2.37;;;10.40;99.90;;;;;;5033093;28;20206;-63
2023/01/08 05:40:26;;;;;;;4.13;2.20;;;10.60;99.90;;;;;;5033116;28;20291;-63
2023/01/08 05:42:52;;;;;;;2.40;1.50;;;10.60;99.90;;;;;;5033273;28;20685;-62
2023/01/08 05:45:19;;;;;;;2.27;1.73;;;10.80;99.90;;;;;;5032665;28;20666;-61
2023/01/08 05:47:47;;;;;;;2.30;1.77;;;10.80;99.90;;;;;;5032685;28;20674;-62
2023/01/08 05:50:14;;;;;;;2.47;1.40;;;10.90;99.90;;;;;;5032695;28;20210;-62
2023/01/08 05:52:41;;;;;;;2.13;1.60;;;11.10;99.90;;;;;;5033089;28;20229;-62
2023/01/08 05:55:08;;;;;;;3.17;1.50;;;11.20;99.90;;;;;;5032821;28;20232;-62
2023/01/08 05:57:35;;;;;;;1.90;1.40;;;11.30;99.90;;;;;;5032680;28;20690;-62
2023/01/08 06:00:02;;;;;;;2.20;1.40;;;11.40;99.90;;;;;;5032547;28;20563;-62
2023/01/08 06:02:28;;;;;;;2.93;1.30;;;11.40;99.90;;;;;;5032710;28;20281;-62
2023/01/08 06:04:56;;;;;;;1.60;1.40;;;11.50;99.90;;;;;;5032340;28;20230;-62
2023/01/08 06:07:23;;;;;;;1.20;1.10;;;11.50;99.90;;;;;;5032453;28;20271;-62
2023/01/08 06:09:49;;;;;;;2.13;1.07;;;11.50;99.90;;;;;;5032757;28;20635;-62
2023/01/08 06:12:16;;;;;;;2.80;1.10;;;11.60;99.90;;;;;;5032288;28;20641;-62
2023/01/08 06:14:43;;;;;;;1.60;0.87;;;11.60;99.90;;;;;;5032233;28;20236;-62
2023/01/08 06:17:09;;;;;;;2.10;1.50;;;11.60;99.90;;;;;;5032322;28;20210;-62
2023/01/08 06:19:38;;;;;;;2.47;1.10;;;11.70;99.90;;;;;;5032599;28;20218;-62
2023/01/08 06:22:06;;;;;;;2.17;1.37;;;11.60;99.90;;;;;;5032371;28;20234;-62
2023/01/08 06:24:32;;;;;;;2.20;0.90;;;11.60;99.90;;;;;;5032468;28;20233;-62
2023/01/08 06:26:59;;;;;;;2.87;1.30;;;11.50;99.90;;;;;;5031944;28;20210;-62
2023/01/08 06:29:26;;;;;;;1.73;0.80;;;11.50;99.90;;;;;;5032397;28;20231;-62
2023/01/08 06:31:52;;;;;;;1.70;0.80;;;11.40;99.90;;;;;;5031944;28;20218;-62
2023/01/08 06:34:19;;;;;;;2.13;0.70;;;11.40;99.90;;;;;;5032223;28;20206;-62
2023/01/08 06:36:46;;;;;;;0.87;0.63;;;11.30;99.90;;;;;;5032064;28;20252;-62
2023/01/08 06:39:14;;;;;;;1.37;0.70;;;11.30;99.90;;;;;;5032331;28;20210;-62
2023/01/08 06:41:40;;;;;;;1.37;0.73;;;11.40;99.90;;;;;;5031970;28;20685;-62
2023/01/08 06:44:07;;;;;;;1.20;0.80;;;11.50;99.90;;;;;;5031967;28;20206;-62
2023/01/08 06:46:37;;;;;;;0.77;0.50;;;11.50;99.90;;;;;;5031873;28;20221;-62
2023/01/08 06:49:03;;;;;;;1.07;0.60;;;11.50;99.90;;;;;;5032331;28;20337;-62
2023/01/08 06:51:30;;;;;;;0.57;0.53;;;11.60;99.90;;;;;;5032031;28;20454;-62
2023/01/08 06:53:57;;;;;;;0.93;0.50;;;11.60;99.90;;;;;;5031926;28;20297;-62
2023/01/08 06:56:25;;;;;;;1.47;0.87;;;11.70;99.90;;;;;;5031683;28;20613;-63
2023/01/08 06:58:52;;;;;;;0.90;0.73;;;11.50;99.90;;;;;;5031728;28;20221;-62
2023/01/08 07:01:19;;;;;;;1.37;0.70;;;11.60;99.90;;;;;;5031768;28;20549;-62
2023/01/08 07:03:46;;;;;;;0.87;0.70;;;11.60;99.90;;;;;;5031979;28;20206;-62
2023/01/08 07:06:15;;;;;;;2.93;1.00;;;11.60;99.90;;;;;;5031750;28;20223;-62
2023/01/08 07:08:41;;;;;;;1.43;0.80;;;11.70;99.90;;;;;;5031654;28;20584;-62
2023/01/08 07:11:08;;;;;;;1.17;0.87;;;11.70;99.90;;;;;;5032086;28;20213;-62
2023/01/08 07:13:36;;;;;;;1.67;1.00;;;11.70;99.90;;;;;;5032147;28;20258;-63
2023/01/08 07:16:07;;;;;;;2.03;1.23;;;11.60;99.90;;;;;;5031819;28;20253;-62
2023/01/08 07:18:34;;;;;;;1.17;0.80;;;11.60;99.90;;;;;;5031711;28;20202;-62
2023/01/08 07:21:01;;;;;;;1.40;0.70;;;11.70;99.90;;;;;;5031672;28;20585;-63
2023/01/08 07:23:28;;;;;;;1.93;0.83;;;11.60;99.90;;;;;;5031617;28;20588;-63
2023/01/08 07:25:55;;;;;;;2.20;1.10;;;11.50;99.90;;;;;;5031479;28;20710;-63
2023/01/08 07:28:22;;;;;;;1.73;0.90;;;11.50;99.90;;;;;;5031622;28;20207;-62
2023/01/08 07:30:50;;;;;;;1.87;1.43;;;11.50;99.90;;;;;;5031762;28;20213;-63
2023/01/08 07:33:16;;;;;;;5.07;3.17;;;11.50;99.90;;;;;;5031538;28;20226;-61
2023/01/08 07:35:43;;;;;;;2.27;1.40;;;11.50;99.90;;;;;;5031734;28;20229;-63
2023/01/08 07:38:10;;;;;;;2.07;1.40;;;11.50;99.90;;;;;;5031407;28;20210;-62
2023/01/08 07:40:36;;;;;;;1.20;1.00;;;11.50;99.90;;;;;;5031246;28;20252;-62
2023/01/08 07:43:05;;;;;;;1.73;1.33;;;11.60;99.90;;;;;;5031539;28;20225;-61
2023/01/08 07:45:32;;;;;;;2.53;1.27;;;11.50;99.90;;;;;;5055936;22;20325;-57
2023/01/08 07:48:00;;;;;;;2.50;1.20;;;11.50;99.90;;;;;;5033530;28;20210;-56
2023/01/08 07:50:27;;;;;;;1.97;1.27;;;11.50;99.90;;;;;;5033666;28;20202;-56
2023/01/08 07:52:57;;;;;;;1.70;1.20;;;11.50;99.90;;;;;;5033852;28;20226;-56
2023/01/08 07:55:24;;;;;;;2.63;1.50;;;11.40;99.90;;;;;;5033708;28;20729;-59
2023/01/08 07:57:50;;;;;;;1.67;1.20;;;11.50;99.90;;;;;;5035350;28;20689;-57
2023/01/08 08:00:18;;;;;;;1.90;1.40;;;11.40;99.90;;;;;;5037803;28;20210;-56
2023/01/08 08:02:44;;;;;;;2.07;1.10;;;11.30;99.90;;;;;;5037218;28;20204;-57
2023/01/08 08:05:13;;;;;;;1.57;0.93;;;11.30;99.90;;;;;;5038456;28;20280;-56
2023/01/08 08:07:39;;;;;;;2.07;1.27;;;11.30;99.90;;;;;;5038400;28;20213;-56
2023/01/08 08:10:07;;;;;;;3.23;1.77;;;11.30;99.90;;;;;;5038894;28;20210;-58
2023/01/08 08:12:34;;;;;;;1.40;1.20;;;11.30;99.90;;;;;;5038159;28;20234;-57
2023/01/08 08:15:01;;;;;;;2.30;1.57;;;11.20;99.90;;;;;;5038672;28;20241;-56
2023/01/08 08:17:28;;;;;;;4.93;3.77;;;11.20;99.90;;;;;;5037298;28;20588;-56
2023/01/08 08:19:54;;;;;;;2.50;1.70;;;11.20;99.90;;;;;;5037674;28;20674;-58
2023/01/08 08:22:23;;;;;;;3.67;1.63;;;11.20;99.90;;;;;;5038352;28;20619;-56
2023/01/08 08:24:49;;;;;;;3.50;1.83;;;11.20;99.90;;;;;;5038985;28;20238;-56
2023/01/08 08:27:16;;;;;;;8.53;7.63;;;11.20;99.90;;;;;;5037735;28;20206;-56
2023/01/08 08:29:43;;;;;;;2.63;1.30;;;11.20;99.90;;;;;;5038026;28;20217;-57
2023/01/08 08:32:09;;;;;;;1.63;1.30;;;11.20;99.90;;;;;;5037187;28;20237;-56
2023/01/08 08:34:36;;;;;;;1.83;1.47;;;11.20;99.90;;;;;;5036465;28;20210;-56
2023/01/08 08:37:03;;;;;;;1.80;1.57;;;11.20;99.90;;;;;;5036926;28;20206;-57
2023/01/08 08:39:31;;;;;;;1.93;1.23;;;11.30;99.90;;;;;;5037806;28;20293;-56
2023/01/08 08:41:58;;;;;;;1.20;1.10;;;11.20;99.90;;;;;;5037760;28;20206;-56
2023/01/08 08:44:25;;;;;;;1.90;1.40;;;11.20;99.90;;;;;;5038195;28;20252;-56
2023/01/08 08:46:51;;;;;;;2.37;1.70;;;11.30;99.90;;;;;;5036192;28;20238;-56
2023/01/08 08:49:18;;;;;;;1.73;1.30;;;11.40;99.90;;;;;;5035152;28;20213;-56
2023/01/08 08:51:45;;;;;;;1.20;1.07;;;11.50;99.90;;;;;;5035177;28;20402;-56
2023/01/08 08:54:12;;;;;;;2.43;1.60;;;11.50;99.90;;;;;;5034608;28;20213;-56
2023/01/08 08:56:40;;;;;;;2.73;1.50;;;11.40;99.90;;;;;;5034905;28;20225;-56
2023/01/08 08:59:11;;;;;;;1.63;1.33;;;11.50;99.90;;;;;;5034865;28;20234;-55
2023/01/08 09:01:38;;;;;;;2.30;1.23;;;11.40;99.90;;;;;;5035291;28;20272;-56
2023/01/08 09:04:05;;;;;;;2.07;1.43;;;11.40;99.90;;;;;;5035041;28;20214;-55
2023/01/08 09:06:31;;;;;;;3.87;3.07;;;11.40;99.90;;;;;;5034075;28;20230;-57
2023/01/08 09:08:58;;;;;;;2.03;1.50;;;11.40;99.90;;;;;;5034529;28;20210;-56
2023/01/08 09:11:25;;;;;;;1.50;1.03;;;11.30;99.90;;;;;;5034975;28;20207;-55
2023/01/08 09:13:53;;;;;;;1.00;0.90;;;11.40;99.90;;;;;;5034919;28;20459;-55
2023/01/08 09:16:20;;;;;;;1.10;0.83;;;11.50;99.90;;;;;;5034651;28;20806;-55
2023/01/08 09:18:47;;;;;;;1.17;1.07;;;11.50;99.90;;;;;;5034999;28;20213;-56
2023/01/08 09:21:15;;;;;;;1.70;0.93;;;11.50;99.90;;;;;;5035003;28;20216;-55
2023/01/08 09:23:41;;;;;;;1.20;0.90;;;11.40;99.90;;;;;;5035351;28;20205;-56
2023/01/08 09:26:09;;;;;;;1.20;1.10;;;11.50;99.90;;;;;;5035698;28;20222;-56
2023/01/08 09:28:36;;;;;;;1.83;1.60;;;11.50;99.90;;;;;;5035991;28;20208;-55
2023/01/08 09:31:05;;;;;;;3.03;1.70;;;11.50;99.90;;;;;;5034077;28;20445;-62
2023/01/08 09:33:32;;;;;;;2.20;1.73;;;11.60;99.90;;;;;;5035210;28;20297;-57
2023/01/08 09:35:59;;;;;;;1.87;1.40;;;11.70;99.90;;;;;;5035717;28;20710;-56
2023/01/08 09:38:25;;;;;;;2.23;1.13;;;11.70;99.90;;;;;;5035424;28;20206;-56
2023/01/08 09:40:58;;;;;;;2.70;1.60;;;11.70;99.90;;;;;;5034485;28;20572;-56
2023/01/08 09:43:27;;;;;;;0.80;0.80;;;11.70;99.90;;;;;;5034925;28;20210;-60
2023/01/08 09:45:57;;;;;;;35.23;17.20;;;11.70;99.90;;;;;;5035380;28;20230;-56
2023/01/08 09:48:29;;;;;;;30.87;16.57;;;11.90;99.90;;;;;;5033534;28;20217;-56
2023/01/08 09:50:56;;;;;;;5.47;3.50;;;12.10;99.90;;;;;;5034402;28;20213;-57
2023/01/08 09:53:24;;;;;;;1.83;1.40;;;12.30;99.90;;;;;;5034463;28;20226;-58
2023/01/08 09:55:56;;;;;;;1.87;1.30;;;12.60;99.90;;;;;;5033425;28;20233;-54
2023/01/08 09:58:30;;;;;;;2.13;1.30;;;12.70;99.90;;;;;;5031942;28;20252;-57
2023/01/08 10:00:57;;;;;;;1.00;0.80;;;12.80;99.90;;;;;;5032361;28;20209;-56
2023/01/08 10:03:31;;;;;;;2.33;1.50;;;13.00;99.90;;;;;;5032420;28;20209;-57
2023/01/08 10:05:58;;;;;;;2.30;1.10;;;12.90;99.90;;;;;;5033162;28;20676;-57
2023/01/08 10:08:24;;;;;;;2.53;1.30;;;12.90;99.90;;;;;;5032379;28;20210;-55
2023/01/08 10:10:51;;;;;;;2.67;1.90;;;12.90;99.90;;;;;;5031720;28;20705;-57
2023/01/08 10:13:18;;;;;;;1.87;1.27;;;12.90;99.90;;;;;;5032499;28;20583;-57
2023/01/08 10:15:45;;;;;;;1.50;1.00;;;12.80;99.90;;;;;;5032162;28;20234;-56
2023/01/08 10:18:15;;;;;;;2.33;1.40;;;13.00;99.90;;;;;;5032388;28;20214;-56
2023/01/08 10:20:43;;;;;;;2.00;1.30;;;12.80;99.90;;;;;;5032346;28;20209;-56
2023/01/08 10:23:12;;;;;;;2.07;1.30;;;12.60;99.90;;;;;;5033000;28;20252;-57
2023/01/08 10:25:51;;;;;;;2.03;1.30;;;12.60;99.90;;;;;;5032143;28;20268;-57
2023/01/08 10:28:20;;;;;;;1.63;1.17;;;12.70;99.90;;;;;;5031836;28;20201;-57
2023/01/08 10:30:47;;;;;;;2.53;1.40;;;12.90;99.90;;;;;;5032843;28;20202;-59
2023/01/08 10:33:20;;;;;;;1.57;1.23;;;13.00;99.90;;;;;;5032278;28;20265;-57
2023/01/08 10:35:55;;;;;;;1.60;1.27;;;13.10;99.90;;;;;;5032004;28;20260;-57
2023/01/08 10:38:30;;;;;;;1.30;1.20;;;13.10;99.90;;;;;;5031773;28;20213;-58
2023/01/08 10:40:57;;;;;;;1.50;1.30;;;13.00;99.90;;;;;;5032050;28;20568;-56
2023/01/08 10:43:27;;;;;;;2.67;1.47;;;12.90;99.90;;;;;;5031437;28;20587;-57
2023/01/08 10:45:59;;;;;;;1.77;1.20;;;12.90;99.90;;;;;;5031605;28;20244;-58
2023/01/08 10:48:32;;;;;;;1.17;1.00;;;12.80;99.90;;;;;;5031805;28;20681;-56
2023/01/08 10:51:13;;;;;;;1.10;0.90;;;12.70;99.90;;;;;;5031856;28;20206;-57
2023/01/08 10:53:40;;;;;;;1.33;0.87;;;12.70;99.90;;;;;;5032493;28;20226;-58
2023/01/08 10:56:18;;;;;;;3.13;1.20;;;12.80;99.90;;;;;;5031559;28;20678;-58
2023/01/08 10:58:45;;;;;;;2.07;1.00;;;12.80;99.90;;;;;;5031511;28;20198;-58
2023/01/08 11:01:16;;;;;;;1.50;0.83;;;12.80;99.90;;;;;;5031711;28;20210;-58
2023/01/08 11:03:43;;;;;;;1.63;1.30;;;12.90;99.90;;;;;;5031653;28;20293;-57
2023/01/08 11:06:13;;;;;;;1.93;1.30;;;12.70;99.90;;;;;;5031657;28;20222;-58
2023/01/08 11:08:49;;;;;;;1.33;1.10;;;12.70;99.90;;;;;;5031253;28;20210;-57
2023/01/08 11:11:16;;;;;;;2.13;1.30;;;12.70;99.90;;;;;;5031358;28;20232;-57
2023/01/08 11:13:55;;;;;;;4.27;1.90;;;12.60;99.90;;;;;;5031589;28;20226;-57
2023/01/08 11:16:23;;;;;;;2.20;1.60;;;12.60;99.90;;;;;;5031628;28;20260;-57
2023/01/08 11:18:51;;;;;;;2.27;1.17;;;12.60;99.90;;;;;;5031160;28;20229;-58
2023/01/08 11:21:22;;;;;;;1.63;1.03;;;12.70;99.90;;;;;;5031392;28;20222;-58
2023/01/08 11:24:02;;;;;;;1.70;1.10;;;12.90;99.90;;;;;;5031072;28;20209;-57
2023/01/08 11:26:29;;;;;;;2.20;0.93;;;12.90;99.90;;;;;;5031319;28;20230;-56
2023/01/08 11:29:02;;;;;;;1.67;1.00;;;13.00;99.90;;;;;;5031186;28;20206;-58
2023/01/08 11:31:37;;;;;;;1.67;1.10;;;13.10;99.90;;;;;;5031290;28;20670;-57
2023/01/08 11:34:12;;;;;;;2.00;1.20;;;13.20;99.90;;;;;;5034584;28;20229;-55
2023/01/08 11:36:48;;;;;;;1.90;1.20;;;13.20;99.90;;;;;;5034828;28;20766;-57
2023/01/08 11:39:14;;;;;;;5.70;4.03;;;13.30;99.90;;;;;;5035391;28;20213;-58
2023/01/08 11:42:19;;;;;;;2.53;2.10;;;13.40;99.90;;;;;;5035416;28;20206;-58
2023/01/08 11:45:09;;;;;;;1.17;0.83;;;13.50;99.90;;;;;;4998764;28;20209;-58
2023/01/08 11:47:55;;;;;;;0.60;0.50;;;13.50;99.90;;;;;;5034400;28;20202;-60
2023/01/08 11:50:27;;;;;;;1.60;0.80;;;13.50;99.90;;;;;;5034997;28;20236;-60
2023/01/08 11:53:12;;;;;;;1.73;0.77;;;13.60;99.90;;;;;;5034592;28;20234;-60
2023/01/08 11:55:59;;;;;;;0.83;0.60;;;13.70;99.90;;;;;;5034444;28;20233;-59
2023/01/08 11:58:39;;;;;;;4.37;2.83;;;13.90;99.90;;;;;;5034105;28;20206;-54
2023/01/08 12:01:30;;;;;;;2.07;1.70;;;14.00;99.90;;;;;;5034858;28;20202;-57
2023/01/08 12:04:22;;;;;;;1.30;0.90;;;14.10;99.90;;;;;;5034669;28;20569;-54
2023/01/08 12:06:58;;;;;;;1.10;0.80;;;14.30;99.90;;;;;;5033919;28;20230;-54
2023/01/08 12:09:35;;;;;;;0.83;0.80;;;14.40;99.90;;;;;;5034368;28;20243;-55
2023/01/08 12:12:07;;;;;;;0.90;0.77;;;14.40;99.90;;;;;;5034127;28;20213;-57
2023/01/08 12:14:48;;;;;;;1.03;0.70;;;14.50;99.90;;;;;;5034043;28;20234;-57
2023/01/08 12:17:53;;;;;;;3.00;2.67;;;14.40;99.90;;;;;;5034099;28;20618;-57
2023/01/08 12:20:29;;;;;;;1.03;0.93;;;14.30;99.90;;;;;;5020949;28;20221;-57
2023/01/08 12:23:05;;;;;;;0.73;0.50;;;14.20;99.90;;;;;;5034345;28;20210;-58
2023/01/08 12:25:53;;;;;;;1.23;0.87;;;14.10;99.90;;;;;;5034030;28;20222;-59
2023/01/08 12:28:39;;;;;;;0.73;0.70;;;14.00;99.90;;;;;;5034396;28;20589;-58
2023/01/08 12:31:29;;;;;;;0.40;0.40;;;13.70;99.90;;;;;;5034082;28;20206;-59
2023/01/08 12:34:00;;;;;;;0.80;0.67;;;13.70;99.90;;;;;;5034032;28;20602;-64
2023/01/08 12:36:33;;;;;;;1.90;1.70;;;13.60;99.90;;;;;;5033430;28;20280;-59
2023/01/08 12:39:05;;;;;;;1.43;0.70;;;13.50;99.90;;;;;;5034102;28;20213;-59
2023/01/08 12:41:35;;;;;;;1.47;0.90;;;13.50;99.90;;;;;;5034221;28;20540;-59
2023/01/08 12:44:04;;;;;;;0.97;0.57;;;13.40;99.90;;;;;;5033350;28;20209;-60
2023/01/08 12:46:34;;;;;;;0.70;0.70;;;13.40;99.90;;;;;;5033645;28;20627;-59
2023/01/08 12:49:02;;;;;;;1.20;0.70;;;13.40;99.90;;;;;;5032948;28;20210;-59
2023/01/08 12:51:33;;;;;;;2.93;2.20;;;13.40;99.90;;;;;;5033975;28;20210;-60
2023/01/08 12:54:08;;;;;;;2.23;1.13;;;13.40;99.90;;;;;;5034281;28;20237;-60
2023/01/08 12:56:45;;;;;;;0.60;0.50;;;13.40;99.90;;;;;;5033419;28;20233;-60
2023/01/08 12:59:23;;;;;;;1.00;0.70;;;13.40;99.90;;;;;;5033223;28;20217;-60
2023/01/08 13:01:57;;;;;;;0.50;0.50;;;13.40;99.90;;;;;;5032917;28;20260;-60
2023/01/08 13:04:24;;;;;;;0.60;0.50;;;13.40;99.90;;;;;;5033485;28;20664;-60